TPC318 KATL-KCTJ
Flight info
| Callsign | TPC318 |
|---|---|
| Flight time | 0h 19m |
| Altitude | VFR |
| Route | |
| Aircraft | PA24/L-DOV/C |
Departure
| Time | 2026-05-05 02:13 |
|---|---|
| Airport | Hartsfield Jackson Atlanta International Airport (KATL) |
Arrival
| Time | 2026-05-05 02:33 |
|---|---|
| Airport | West Georgia Regional Airport / O V Gray Field (KCTJ) |
| Time | Latitude | Longitude | Altitude | Speed | Heading |
|---|---|---|---|---|---|
| 2026-05-05 02:03 | 33.65225 | -84.42418 | 1001 ft | 0 kts | 110° |
| 2026-05-05 02:05 | 33.65224 | -84.42413 | 1001 ft | 1 kts | 108° |
| 2026-05-05 02:07 | 33.65212 | -84.42374 | 1001 ft | 14 kts | 116° |
| 2026-05-05 02:07 | 33.65165 | -84.42268 | 1001 ft | 20 kts | 121° |
| 2026-05-05 02:08 | 33.65081 | -84.42195 | 1001 ft | 15 kts | 129° |
| 2026-05-05 02:08 | 33.65070 | -84.42037 | 1001 ft | 20 kts | 91° |
| 2026-05-05 02:08 | 33.65067 | -84.41870 | 1001 ft | 21 kts | 91° |
| 2026-05-05 02:08 | 33.65067 | -84.41695 | 1000 ft | 22 kts | 90° |
| 2026-05-05 02:09 | 33.65092 | -84.41511 | 1000 ft | 24 kts | 63° |
| 2026-05-05 02:09 | 33.65120 | -84.41315 | 1000 ft | 25 kts | 88° |
| 2026-05-05 02:09 | 33.65123 | -84.41103 | 1001 ft | 26 kts | 90° |
| 2026-05-05 02:09 | 33.65066 | -84.40957 | 1001 ft | 14 kts | 163° |
| 2026-05-05 02:10 | 33.65054 | -84.40955 | 1001 ft | 0 kts | 181° |
| 2026-05-05 02:10 | 33.64990 | -84.40953 | 1001 ft | 23 kts | 176° |
| 2026-05-05 02:10 | 33.64867 | -84.40941 | 1000 ft | 14 kts | 139° |
| 2026-05-05 02:11 | 33.64844 | -84.40826 | 1000 ft | 16 kts | 89° |
| 2026-05-05 02:11 | 33.64847 | -84.40687 | 1001 ft | 17 kts | 88° |
| 2026-05-05 02:11 | 33.64813 | -84.40581 | 1000 ft | 10 kts | 150° |
| 2026-05-05 02:11 | 33.64772 | -84.40567 | 1000 ft | 0 kts | 175° |
| 2026-05-05 02:12 | 33.64671 | -84.40685 | 998 ft | 22 kts | 260° |
| 2026-05-05 02:12 | 33.64668 | -84.41080 | 1001 ft | 72 kts | 270° |
| 2026-05-05 02:13 | 33.64682 | -84.41786 | 1064 ft | 91 kts | 267° |
| 2026-05-05 02:13 | 33.64858 | -84.42523 | 1234 ft | 96 kts | 302° |
| 2026-05-05 02:13 | 33.65417 | -84.42971 | 1416 ft | 101 kts | 343° |
| 2026-05-05 02:13 | 33.66126 | -84.42980 | 1642 ft | 106 kts | 5° |
| 2026-05-05 02:14 | 33.66896 | -84.42869 | 1825 ft | 117 kts | 5° |
| 2026-05-05 02:14 | 33.67742 | -84.42737 | 2000 ft | 126 kts | 6° |
| 2026-05-05 02:14 | 33.68575 | -84.42993 | 2135 ft | 132 kts | 321° |
| 2026-05-05 02:14 | 33.69243 | -84.43604 | 2512 ft | 115 kts | 300° |
| 2026-05-05 02:15 | 33.69577 | -84.44556 | 2481 ft | 131 kts | 277° |
| 2026-05-05 02:15 | 33.69783 | -84.45658 | 2476 ft | 139 kts | 276° |
| 2026-05-05 02:15 | 33.69989 | -84.46825 | 2452 ft | 147 kts | 275° |
| 2026-05-05 02:15 | 33.70190 | -84.48052 | 2451 ft | 152 kts | 276° |
| 2026-05-05 02:16 | 33.70380 | -84.49308 | 2447 ft | 154 kts | 275° |
| 2026-05-05 02:16 | 33.70581 | -84.50584 | 2446 ft | 157 kts | 275° |
| 2026-05-05 02:16 | 33.70777 | -84.51877 | 2453 ft | 158 kts | 276° |
| 2026-05-05 02:16 | 33.70964 | -84.53170 | 2452 ft | 157 kts | 274° |
| 2026-05-05 02:17 | 33.71143 | -84.54468 | 2447 ft | 158 kts | 274° |
| 2026-05-05 02:17 | 33.71333 | -84.55772 | 2442 ft | 159 kts | 275° |
| 2026-05-05 02:17 | 33.71538 | -84.57080 | 2436 ft | 160 kts | 275° |
| 2026-05-05 02:17 | 33.71729 | -84.58395 | 2439 ft | 160 kts | 275° |
| 2026-05-05 02:18 | 33.71913 | -84.59704 | 2452 ft | 158 kts | 274° |
| 2026-05-05 02:18 | 33.72094 | -84.61009 | 2439 ft | 159 kts | 275° |
| 2026-05-05 02:18 | 33.72285 | -84.62320 | 2439 ft | 159 kts | 274° |
| 2026-05-05 02:18 | 33.72478 | -84.63636 | 2437 ft | 160 kts | 274° |
| 2026-05-05 02:19 | 33.72665 | -84.64956 | 2439 ft | 161 kts | 274° |
| 2026-05-05 02:19 | 33.72840 | -84.66273 | 2434 ft | 158 kts | 274° |
| 2026-05-05 02:19 | 33.73037 | -84.67530 | 2421 ft | 154 kts | 275° |
| 2026-05-05 02:19 | 33.73238 | -84.68791 | 2445 ft | 154 kts | 274° |
| 2026-05-05 02:20 | 33.73418 | -84.70046 | 2438 ft | 155 kts | 275° |
| 2026-05-05 02:20 | 33.73611 | -84.71324 | 2433 ft | 156 kts | 272° |
| 2026-05-05 02:20 | 33.73780 | -84.72614 | 2436 ft | 157 kts | 274° |
| 2026-05-05 02:20 | 33.73890 | -84.73923 | 2432 ft | 157 kts | 269° |
| 2026-05-05 02:21 | 33.73990 | -84.75225 | 2431 ft | 156 kts | 270° |
| 2026-05-05 02:21 | 33.74104 | -84.76521 | 2430 ft | 156 kts | 271° |
| 2026-05-05 02:21 | 33.74202 | -84.77820 | 2427 ft | 156 kts | 268° |
| 2026-05-05 02:21 | 33.74275 | -84.79124 | 2427 ft | 157 kts | 269° |
| 2026-05-05 02:22 | 33.74373 | -84.80432 | 2435 ft | 158 kts | 269° |
| 2026-05-05 02:22 | 33.74461 | -84.81747 | 2435 ft | 157 kts | 269° |
| 2026-05-05 02:22 | 33.74547 | -84.83047 | 2437 ft | 155 kts | 270° |
| 2026-05-05 02:22 | 33.74627 | -84.84338 | 2441 ft | 155 kts | 268° |
| 2026-05-05 02:23 | 33.74694 | -84.85627 | 2443 ft | 156 kts | 269° |
| 2026-05-05 02:23 | 33.74792 | -84.86933 | 2444 ft | 157 kts | 270° |
| 2026-05-05 02:23 | 33.74899 | -84.88242 | 2449 ft | 157 kts | 269° |
| 2026-05-05 02:23 | 33.74966 | -84.89553 | 2450 ft | 157 kts | 268° |
| 2026-05-05 02:24 | 33.75039 | -84.90856 | 2435 ft | 156 kts | 269° |
| 2026-05-05 02:24 | 33.75129 | -84.92161 | 2436 ft | 157 kts | 269° |
| 2026-05-05 02:24 | 33.75224 | -84.93462 | 2435 ft | 156 kts | 270° |
| 2026-05-05 02:24 | 33.75316 | -84.94773 | 2436 ft | 158 kts | 268° |
| 2026-05-05 02:25 | 33.75386 | -84.96080 | 2434 ft | 156 kts | 268° |
| 2026-05-05 02:25 | 33.75479 | -84.97381 | 2434 ft | 157 kts | 269° |
| 2026-05-05 02:25 | 33.75564 | -84.98687 | 2434 ft | 156 kts | 269° |
| 2026-05-05 02:25 | 33.75667 | -84.99985 | 2434 ft | 157 kts | 269° |
| 2026-05-05 02:26 | 33.75741 | -85.01291 | 2433 ft | 157 kts | 263° |
| 2026-05-05 02:26 | 33.75725 | -85.02588 | 2434 ft | 155 kts | 263° |
| 2026-05-05 02:26 | 33.75717 | -85.03884 | 2433 ft | 156 kts | 263° |
| 2026-05-05 02:26 | 33.75716 | -85.05185 | 2435 ft | 156 kts | 265° |
| 2026-05-05 02:27 | 33.75707 | -85.06478 | 2433 ft | 153 kts | 268° |
| 2026-05-05 02:27 | 33.75721 | -85.07759 | 2431 ft | 153 kts | 265° |
| 2026-05-05 02:27 | 33.75720 | -85.09042 | 2433 ft | 154 kts | 264° |
| 2026-05-05 02:27 | 33.75713 | -85.10335 | 2433 ft | 155 kts | 265° |
| 2026-05-05 02:28 | 33.75706 | -85.11627 | 2432 ft | 155 kts | 263° |
| 2026-05-05 02:28 | 33.75690 | -85.12919 | 2431 ft | 154 kts | 263° |
| 2026-05-05 02:28 | 33.75666 | -85.14197 | 2429 ft | 153 kts | 264° |
| 2026-05-05 02:28 | 33.75673 | -85.15483 | 2430 ft | 155 kts | 264° |
| 2026-05-05 02:29 | 33.75611 | -85.16769 | 2431 ft | 154 kts | 255° |
| 2026-05-05 02:29 | 33.75173 | -85.17890 | 2474 ft | 148 kts | 227° |
| 2026-05-05 02:29 | 33.74392 | -85.18647 | 2606 ft | 142 kts | 204° |
| 2026-05-05 02:29 | 33.73422 | -85.18771 | 2510 ft | 146 kts | 169° |
| 2026-05-05 02:30 | 33.72500 | -85.18340 | 2376 ft | 136 kts | 162° |
| 2026-05-05 02:30 | 33.71645 | -85.17967 | 2299 ft | 123 kts | 167° |
| 2026-05-05 02:30 | 33.70877 | -85.17716 | 2175 ft | 107 kts | 169° |
| 2026-05-05 02:30 | 33.70184 | -85.17519 | 1976 ft | 99 kts | 170° |
| 2026-05-05 02:31 | 33.69537 | -85.17325 | 1817 ft | 100 kts | 167° |
| 2026-05-05 02:31 | 33.68837 | -85.17097 | 1760 ft | 106 kts | 165° |
| 2026-05-05 02:31 | 33.68133 | -85.16848 | 1752 ft | 105 kts | 167° |
| 2026-05-05 02:31 | 33.67438 | -85.16598 | 1731 ft | 105 kts | 163° |
| 2026-05-05 02:32 | 33.66729 | -85.16376 | 1668 ft | 106 kts | 168° |
| 2026-05-05 02:32 | 33.66018 | -85.16186 | 1595 ft | 103 kts | 168° |
| 2026-05-05 02:32 | 33.65321 | -85.15972 | 1436 ft | 103 kts | 163° |
| 2026-05-05 02:32 | 33.64647 | -85.15731 | 1318 ft | 99 kts | 164° |
| 2026-05-05 02:33 | 33.64019 | -85.15519 | 1222 ft | 88 kts | 164° |
| 2026-05-05 02:33 | 33.63483 | -85.15337 | 1156 ft | 68 kts | 163° |
| 2026-05-05 02:33 | 33.63100 | -85.15202 | 1143 ft | 49 kts | 164° |
| 2026-05-05 02:33 | 33.62908 | -85.15151 | 1137 ft | 9 kts | 188° |
| 2026-05-05 02:34 | 33.62877 | -85.15194 | 1134 ft | 9 kts | 252° |
| 2026-05-05 02:34 | 33.62878 | -85.15260 | 1136 ft | 5 kts | 323° |
| 2026-05-05 02:34 | 33.62886 | -85.15265 | 1137 ft | 0 kts | 336° |
| 2026-05-05 02:35 | 33.62936 | -85.15287 | 1138 ft | 16 kts | 345° |
| 2026-05-05 02:35 | 33.63006 | -85.15309 | 1142 ft | 5 kts | 346° |
| 2026-05-05 02:35 | 33.63058 | -85.15327 | 1142 ft | 11 kts | 346° |
| 2026-05-05 02:35 | 33.63124 | -85.15349 | 1144 ft | 8 kts | 344° |
| 2026-05-05 02:36 | 33.63209 | -85.15378 | 1147 ft | 14 kts | 344° |
| 2026-05-05 02:36 | 33.63276 | -85.15416 | 1149 ft | 11 kts | 309° |
| 2026-05-05 02:36 | 33.63287 | -85.15485 | 1150 ft | 12 kts | 272° |
| 2026-05-05 02:36 | 33.63284 | -85.15524 | 1151 ft | 0 kts | 263° |